createdAt,value
2022-11-17T00:01:37.654Z,8.92
2022-11-17T00:06:39.473Z,8.94
2022-11-17T00:11:59.568Z,8.95
2022-11-17T00:17:02.007Z,8.97
2022-11-17T00:22:03.793Z,8.95
2022-11-17T00:27:05.785Z,8.95
2022-11-17T00:32:33.525Z,8.99
2022-11-17T00:37:38.096Z,9.02
2022-11-17T00:42:39.683Z,9.04
2022-11-17T00:47:43.040Z,9.05
2022-11-17T00:52:44.664Z,9.03
2022-11-17T00:57:46.258Z,8.99
2022-11-17T01:02:48.044Z,9.01
2022-11-17T01:07:49.810Z,9.00
2022-11-17T01:12:51.413Z,9.02
2022-11-17T01:17:53.063Z,9.06
2022-11-17T01:22:55.053Z,9.09
2022-11-17T01:27:56.608Z,8.93
2022-11-17T01:32:58.161Z,8.92
2022-11-17T01:37:59.848Z,8.95
2022-11-17T01:43:01.561Z,9.01
2022-11-17T01:48:06.845Z,8.97
2022-11-17T01:53:15.334Z,8.99
2022-11-17T01:58:33.497Z,8.80
2022-11-17T02:03:37.126Z,8.93
2022-11-17T02:08:41.155Z,8.94
2022-11-17T02:13:42.792Z,9.01
2022-11-17T02:18:46.798Z,9.01
2022-11-17T02:24:12.955Z,8.88
2022-11-17T02:29:44.752Z,8.95
2022-11-17T02:34:46.533Z,8.98
2022-11-17T02:40:10.644Z,8.96
2022-11-17T02:45:19.461Z,8.97
2022-11-17T02:50:28.031Z,9.00
2022-11-17T02:55:33.184Z,8.93
2022-11-17T03:00:37.936Z,8.89
2022-11-17T03:05:48.605Z,8.92
2022-11-17T03:10:58.608Z,8.92
2022-11-17T03:16:08.356Z,8.89
2022-11-17T03:21:19.886Z,8.90
2022-11-17T03:26:32.032Z,8.88
2022-11-17T03:31:35.209Z,8.89
2022-11-17T03:36:40.110Z,8.87
2022-11-17T03:41:46.032Z,8.87
2022-11-17T03:46:49.524Z,8.83
2022-11-17T03:51:51.548Z,8.85
2022-11-17T03:57:01.468Z,8.83
2022-11-17T04:02:03.229Z,8.81
2022-11-17T04:07:04.872Z,8.79
2022-11-17T04:12:26.123Z,8.75
2022-11-17T04:17:27.676Z,8.75
2022-11-17T04:22:29.251Z,8.76
2022-11-17T04:27:49.530Z,8.74
2022-11-17T04:32:51.095Z,8.73
2022-11-17T04:37:52.637Z,8.76
2022-11-17T04:42:54.192Z,8.75
2022-11-17T04:47:56.025Z,8.63
2022-11-17T04:52:57.828Z,8.75
2022-11-17T04:57:59.406Z,8.79
2022-11-17T05:03:00.988Z,8.82
2022-11-17T05:08:02.566Z,8.80
2022-11-17T05:13:22.344Z,8.77
2022-11-17T05:18:23.908Z,8.75
2022-11-17T05:23:44.076Z,8.72
2022-11-17T05:28:46.141Z,8.72
2022-11-17T05:33:48.069Z,8.70
2022-11-17T05:38:50.464Z,8.62
2022-11-17T05:43:52.597Z,8.55
2022-11-17T05:48:54.844Z,8.55
2022-11-17T05:53:56.426Z,8.51
2022-11-17T05:59:07.129Z,8.45
2022-11-17T06:04:08.902Z,8.41
2022-11-17T06:09:10.633Z,8.49
2022-11-17T06:14:12.462Z,8.49
2022-11-17T06:19:20.870Z,8.46
2022-11-17T06:24:23.300Z,8.50
2022-11-17T06:29:26.102Z,8.50
2022-11-17T06:34:28.855Z,8.51
2022-11-17T06:39:30.508Z,8.54
2022-11-17T06:44:32.045Z,8.53
2022-11-17T06:49:33.631Z,8.36
2022-11-17T06:54:35.221Z,8.37
2022-11-17T06:59:37.329Z,8.44
2022-11-17T07:04:39.466Z,8.49
2022-11-17T07:09:41.111Z,8.44
2022-11-17T07:14:42.731Z,8.41
2022-11-17T07:19:44.533Z,8.42
2022-11-17T07:24:46.363Z,8.50
2022-11-17T07:29:48.131Z,8.57
2022-11-17T07:34:49.989Z,8.69
2022-11-17T07:39:51.658Z,8.83
2022-11-17T07:44:53.719Z,8.80
2022-11-17T07:49:55.399Z,8.84
2022-11-17T07:54:56.998Z,8.93
2022-11-17T07:59:58.570Z,9.00
2022-11-17T08:05:00.170Z,9.14
2022-11-17T08:10:01.982Z,9.30
2022-11-17T08:15:03.882Z,9.37
2022-11-17T08:20:05.866Z,9.28
2022-11-17T08:25:08.070Z,9.19
2022-11-17T08:30:10.290Z,9.07
2022-11-17T08:35:11.942Z,9.19
2022-11-17T08:40:14.598Z,9.13
2022-11-17T08:45:16.325Z,9.43
2022-11-17T08:50:18.327Z,9.63
2022-11-17T08:55:20.165Z,9.51
2022-11-17T09:00:22.178Z,9.79
2022-11-17T09:05:25.080Z,9.81
2022-11-17T09:10:26.709Z,9.87
2022-11-17T09:15:28.385Z,9.66
2022-11-17T09:20:31.869Z,9.56
2022-11-17T09:25:33.453Z,9.47
2022-11-17T09:30:36.295Z,9.49
2022-11-17T09:35:37.924Z,9.15
2022-11-17T09:40:41.604Z,9.24
2022-11-17T09:45:46.218Z,9.13
2022-11-17T09:50:49.542Z,9.17
2022-11-17T09:55:56.149Z,9.21
2022-11-17T10:00:57.872Z,9.06
2022-11-17T10:06:03.575Z,9.17
2022-11-17T10:11:31.608Z,9.12
2022-11-17T10:16:34.363Z,9.13
2022-11-17T10:21:37.949Z,9.07
2022-11-17T10:26:47.890Z,9.14
2022-11-17T10:31:49.930Z,9.10
2022-11-17T10:36:51.830Z,9.10
2022-11-17T10:41:54.331Z,9.24
2022-11-17T10:47:04.633Z,9.08
2022-11-17T10:52:15.741Z,9.08
2022-11-17T10:57:22.436Z,8.99
2022-11-17T11:02:34.440Z,9.03
2022-11-17T11:07:36.885Z,9.09
2022-11-17T11:13:01.980Z,9.20
2022-11-17T11:18:14.849Z,9.08
2022-11-17T11:23:43.875Z,8.99
2022-11-17T11:29:13.411Z,9.04
2022-11-17T11:34:40.969Z,8.95
2022-11-17T11:39:42.562Z,9.03
2022-11-17T11:45:03.018Z,9.08
2022-11-17T11:50:26.064Z,9.22
2022-11-17T11:55:34.974Z,9.42
2022-11-17T12:00:38.541Z,9.35
2022-11-17T12:05:48.558Z,9.52
2022-11-17T12:11:29.078Z,9.56
2022-11-17T12:16:36.227Z,9.56
2022-11-17T12:21:38.534Z,9.23
2022-11-17T12:26:40.188Z,9.33
2022-11-17T12:31:46.740Z,9.39
2022-11-17T12:37:16.861Z,9.37
2022-11-17T12:42:18.488Z,9.30
2022-11-17T12:47:25.401Z,9.45
2022-11-17T12:52:47.974Z,9.50
2022-11-17T12:57:58.008Z,9.51
2022-11-17T13:03:11.771Z,9.49
2022-11-17T13:08:13.297Z,9.38
2022-11-17T13:13:23.889Z,9.25
2022-11-17T13:18:38.193Z,9.08
2022-11-17T13:23:44.327Z,8.97
2022-11-17T13:28:46.563Z,9.17
2022-11-17T13:34:10.722Z,9.06
2022-11-17T13:39:17.006Z,9.09
2022-11-17T13:44:24.158Z,8.93
2022-11-17T13:49:38.446Z,9.01
2022-11-17T13:54:44.806Z,9.00
2022-11-17T13:59:46.915Z,8.94
2022-11-17T14:05:18.665Z,8.97
2022-11-17T14:10:20.428Z,9.01
2022-11-17T14:15:24.902Z,9.12
2022-11-17T14:20:35.872Z,9.02
2022-11-17T14:25:51.264Z,9.04
2022-11-17T14:30:57.391Z,9.09
2022-11-17T14:35:59.998Z,9.17
2022-11-17T14:41:01.624Z,9.04
2022-11-17T14:46:03.750Z,8.98
2022-11-17T14:51:05.645Z,8.88
2022-11-17T14:56:08.894Z,8.95
2022-11-17T15:01:13.730Z,8.73
2022-11-17T15:06:20.000Z,8.59
2022-11-17T15:11:23.662Z,8.35
2022-11-17T15:16:25.296Z,8.25
2022-11-17T15:21:26.919Z,8.32
2022-11-17T15:26:28.522Z,8.21
2022-11-17T15:31:30.249Z,8.14
2022-11-17T15:36:32.194Z,8.27
2022-11-17T15:41:33.822Z,8.22
2022-11-17T15:46:35.717Z,8.17
2022-11-17T15:51:37.525Z,8.05
2022-11-17T15:56:39.172Z,7.94
2022-11-17T16:01:41.113Z,8.12
2022-11-17T16:06:45.429Z,8.09
2022-11-17T16:11:47.135Z,8.02
2022-11-17T16:16:48.949Z,8.05
2022-11-17T16:21:51.189Z,8.03
2022-11-17T16:26:52.873Z,8.14
2022-11-17T16:31:55.323Z,8.18
2022-11-17T16:36:56.971Z,8.01
2022-11-17T16:42:00.187Z,7.92
2022-11-17T16:47:01.834Z,7.66
2022-11-17T16:52:03.688Z,7.68
2022-11-17T16:57:05.374Z,7.55
2022-11-17T17:02:06.950Z,7.60
2022-11-17T17:07:08.602Z,7.62
2022-11-17T17:12:10.324Z,7.69
2022-11-17T17:17:11.917Z,7.77
2022-11-17T17:22:13.531Z,7.76
2022-11-17T17:27:15.300Z,7.63
2022-11-17T17:32:16.933Z,7.64
2022-11-17T17:37:18.698Z,7.69
2022-11-17T17:42:20.494Z,7.53
2022-11-17T17:47:22.089Z,7.47
2022-11-17T17:52:23.681Z,7.49
2022-11-17T17:57:28.676Z,7.53
2022-11-17T18:02:33.907Z,7.58
2022-11-17T18:07:35.539Z,7.50
2022-11-17T18:12:37.461Z,7.36
2022-11-17T18:17:40.568Z,7.35
2022-11-17T18:22:42.438Z,7.20
2022-11-17T18:27:44.049Z,7.06
2022-11-17T18:32:45.677Z,7.13
2022-11-17T18:37:47.445Z,6.93
2022-11-17T18:42:49.291Z,6.97
2022-11-17T18:47:50.955Z,6.95
2022-11-17T18:52:52.595Z,6.70
2022-11-17T18:57:54.386Z,6.57
2022-11-17T19:02:56.006Z,6.53
2022-11-17T19:07:57.806Z,6.34
2022-11-17T19:12:59.390Z,6.26
2022-11-17T19:18:01.009Z,6.21
2022-11-17T19:23:02.625Z,5.90
2022-11-17T19:28:04.559Z,5.80
2022-11-17T19:33:06.174Z,5.91
2022-11-17T19:38:07.988Z,5.98
2022-11-17T19:43:09.601Z,6.01
2022-11-17T19:48:11.196Z,5.71
2022-11-17T19:53:12.781Z,5.67
2022-11-17T19:58:18.288Z,5.61
2022-11-17T20:03:21.218Z,5.70
2022-11-17T20:08:22.846Z,5.76
2022-11-17T20:13:24.454Z,5.83
2022-11-17T20:18:26.234Z,5.94
2022-11-17T20:23:27.833Z,6.01
2022-11-17T20:28:32.082Z,6.05
2022-11-17T20:33:34.403Z,6.05
2022-11-17T20:38:36.191Z,6.06
2022-11-17T20:43:37.927Z,6.06
2022-11-17T20:48:39.567Z,6.10
2022-11-17T20:53:41.390Z,6.08
2022-11-17T20:58:43.296Z,5.90
2022-11-17T21:03:45.460Z,5.76
2022-11-17T21:08:47.146Z,5.82
2022-11-17T21:13:48.737Z,5.84
2022-11-17T21:18:50.387Z,5.80
2022-11-17T21:23:55.815Z,5.95
2022-11-17T21:29:03.226Z,5.99
2022-11-17T21:34:12.599Z,6.00
2022-11-17T21:39:18.626Z,6.07
2022-11-17T21:44:20.859Z,6.03
2022-11-17T21:49:22.499Z,6.03
2022-11-17T21:54:24.309Z,6.15
2022-11-17T21:59:25.939Z,6.22
2022-11-17T22:04:27.558Z,6.33
2022-11-17T22:09:29.418Z,6.41
2022-11-17T22:14:31.603Z,6.44
2022-11-17T22:19:33.815Z,6.31
2022-11-17T22:24:37.767Z,6.41
2022-11-17T22:29:41.482Z,6.39
2022-11-17T22:34:43.678Z,6.47
2022-11-17T22:39:45.658Z,6.42
2022-11-17T22:44:47.321Z,6.41
2022-11-17T22:49:49.293Z,6.43
2022-11-17T22:54:50.929Z,6.38
2022-11-17T22:59:52.796Z,6.44
2022-11-17T23:04:54.457Z,6.37
2022-11-17T23:09:56.371Z,6.47
2022-11-17T23:14:58.426Z,6.58
2022-11-17T23:20:00.208Z,6.56
2022-11-17T23:25:02.339Z,6.51
2022-11-17T23:30:04.311Z,6.57
2022-11-17T23:35:06.601Z,6.64
2022-11-17T23:40:09.050Z,6.68
2022-11-17T23:45:12.164Z,6.71
2022-11-17T23:50:13.810Z,6.74
2022-11-17T23:55:15.490Z,6.79
